sensor_id;sensor_type;location;lat;lon;timestamp;temperature;humidity
62072;DHT22;48031;48.542;13.232;2022-08-21T00:10:23;18.60;99.90
62072;DHT22;48031;48.542;13.232;2022-08-21T00:12:50;18.30;99.90
62072;DHT22;48031;48.542;13.232;2022-08-21T00:15:19;18.90;99.90
62072;DHT22;48031;48.542;13.232;2022-08-21T00:27:36;18.80;99.90
62072;DHT22;48031;48.542;13.232;2022-08-21T00:30:04;18.60;99.90
62072;DHT22;48031;48.542;13.232;2022-08-21T00:49:45;17.80;99.90
62072;DHT22;48031;48.542;13.232;2022-08-21T01:14:24;18.50;99.90
62072;DHT22;48031;48.542;13.232;2022-08-21T01:24:13;18.70;99.90
62072;DHT22;48031;48.542;13.232;2022-08-21T01:26:40;18.70;99.90
62072;DHT22;48031;48.542;13.232;2022-08-21T01:31:35;18.80;99.90
62072;DHT22;48031;48.542;13.232;2022-08-21T01:43:53;18.20;99.90
62072;DHT22;48031;48.542;13.232;2022-08-21T01:48:47;18.80;99.90
62072;DHT22;48031;48.542;13.232;2022-08-21T01:53:41;18.20;99.90
62072;DHT22;48031;48.542;13.232;2022-08-21T02:01:05;17.70;99.90
62072;DHT22;48031;48.542;13.232;2022-08-21T02:08:29;18.80;99.90
62072;DHT22;48031;48.542;13.232;2022-08-21T02:10:56;18.40;99.90
62072;DHT22;48031;48.542;13.232;2022-08-21T02:13:22;18.30;99.90
62072;DHT22;48031;48.542;13.232;2022-08-21T02:15:49;17.90;99.90
62072;DHT22;48031;48.542;13.232;2022-08-21T02:18:16;18.50;99.90
62072;DHT22;48031;48.542;13.232;2022-08-21T02:20:45;18.10;99.90
62072;DHT22;48031;48.542;13.232;2022-08-21T02:28:11;18.10;99.90
62072;DHT22;48031;48.542;13.232;2022-08-21T02:33:06;18.20;99.90
62072;DHT22;48031;48.542;13.232;2022-08-21T02:38:02;18.20;99.90
62072;DHT22;48031;48.542;13.232;2022-08-21T02:40:32;17.80;99.90
62072;DHT22;48031;48.542;13.232;2022-08-21T02:42:59;18.00;99.90
62072;DHT22;48031;48.542;13.232;2022-08-21T02:45:27;18.40;99.90
62072;DHT22;48031;48.542;13.232;2022-08-21T02:48:01;17.70;99.90
62072;DHT22;48031;48.542;13.232;2022-08-21T02:50:33;17.40;99.90
62072;DHT22;48031;48.542;13.232;2022-08-21T02:53:01;18.10;99.90
62072;DHT22;48031;48.542;13.232;2022-08-21T02:55:29;18.10;99.90
62072;DHT22;48031;48.542;13.232;2022-08-21T03:02:52;17.00;99.90
62072;DHT22;48031;48.542;13.232;2022-08-21T03:05:20;17.80;99.90
62072;DHT22;48031;48.542;13.232;2022-08-21T03:07:47;17.00;99.90
62072;DHT22;48031;48.542;13.232;2022-08-21T03:10:15;16.60;99.90
62072;DHT22;48031;48.542;13.232;2022-08-21T03:17:38;18.20;99.90
62072;DHT22;48031;48.542;13.232;2022-08-21T03:25:00;17.50;99.90
62072;DHT22;48031;48.542;13.232;2022-08-21T03:30:01;18.10;99.90
62072;DHT22;48031;48.542;13.232;2022-08-21T03:32:28;18.10;99.90
62072;DHT22;48031;48.542;13.232;2022-08-21T03:34:56;19.00;99.90
62072;DHT22;48031;48.542;13.232;2022-08-21T03:39:51;16.60;99.90
62072;DHT22;48031;48.542;13.232;2022-08-21T03:42:18;18.00;99.90
62072;DHT22;48031;48.542;13.232;2022-08-21T03:54:35;18.60;99.90
62072;DHT22;48031;48.542;13.232;2022-08-21T03:57:03;18.90;99.90
62072;DHT22;48031;48.542;13.232;2022-08-21T04:09:20;18.90;99.90
62072;DHT22;48031;48.542;13.232;2022-08-21T04:43:46;18.30;99.90
62072;DHT22;48031;48.542;13.232;2022-08-21T04:48:41;18.50;99.90
62072;DHT22;48031;48.542;13.232;2022-08-21T04:51:12;18.50;99.90
62072;DHT22;48031;48.542;13.232;2022-08-21T04:53:44;19.10;99.90
62072;DHT22;48031;48.542;13.232;2022-08-21T04:56:22;19.00;99.90
62072;DHT22;48031;48.542;13.232;2022-08-21T05:01:19;16.50;99.90
62072;DHT22;48031;48.542;13.232;2022-08-21T05:03:47;17.80;99.90
62072;DHT22;48031;48.542;13.232;2022-08-21T05:06:16;17.30;99.90
62072;DHT22;48031;48.542;13.232;2022-08-21T05:08:44;16.90;99.90
62072;DHT22;48031;48.542;13.232;2022-08-21T05:11:12;18.40;99.90
62072;DHT22;48031;48.542;13.232;2022-08-21T05:13:40;19.10;99.90
62072;DHT22;48031;48.542;13.232;2022-08-21T05:16:11;18.30;99.90
62072;DHT22;48031;48.542;13.232;2022-08-21T05:18:38;18.10;99.90
62072;DHT22;48031;48.542;13.232;2022-08-21T05:21:05;18.20;99.90
62072;DHT22;48031;48.542;13.232;2022-08-21T05:23:33;17.90;99.90
62072;DHT22;48031;48.542;13.232;2022-08-21T05:26:00;18.20;99.90
62072;DHT22;48031;48.542;13.232;2022-08-21T05:28:28;18.20;99.90
62072;DHT22;48031;48.542;13.232;2022-08-21T05:30:55;18.10;99.90
62072;DHT22;48031;48.542;13.232;2022-08-21T05:33:22;18.20;99.90
62072;DHT22;48031;48.542;13.232;2022-08-21T05:35:51;18.50;99.90
62072;DHT22;48031;48.542;13.232;2022-08-21T05:38:19;18.40;99.90
62072;DHT22;48031;48.542;13.232;2022-08-21T05:40:46;18.20;99.90
62072;DHT22;48031;48.542;13.232;2022-08-21T05:43:14;18.70;99.90
62072;DHT22;48031;48.542;13.232;2022-08-21T05:45:41;18.70;99.90
62072;DHT22;48031;48.542;13.232;2022-08-21T05:48:14;18.10;99.90
62072;DHT22;48031;48.542;13.232;2022-08-21T05:50:42;17.90;99.90
62072;DHT22;48031;48.542;13.232;2022-08-21T05:53:09;18.40;99.90
62072;DHT22;48031;48.542;13.232;2022-08-21T05:55:37;18.90;99.90
62072;DHT22;48031;48.542;13.232;2022-08-21T05:58:11;17.60;99.90
62072;DHT22;48031;48.542;13.232;2022-08-21T06:00:38;18.30;99.90
62072;DHT22;48031;48.542;13.232;2022-08-21T06:03:10;19.00;99.90
62072;DHT22;48031;48.542;13.232;2022-08-21T06:05:37;19.40;99.90
62072;DHT22;48031;48.542;13.232;2022-08-21T06:08:04;18.70;99.90
62072;DHT22;48031;48.542;13.232;2022-08-21T06:10:31;18.30;99.90
62072;DHT22;48031;48.542;13.232;2022-08-21T06:12:58;17.40;99.90
62072;DHT22;48031;48.542;13.232;2022-08-21T06:15:25;19.30;99.90
62072;DHT22;48031;48.542;13.232;2022-08-21T06:17:53;19.50;99.90
62072;DHT22;48031;48.542;13.232;2022-08-21T06:20:20;18.70;99.90
62072;DHT22;48031;48.542;13.232;2022-08-21T06:22:48;19.20;99.90
62072;DHT22;48031;48.542;13.232;2022-08-21T06:25:15;18.10;99.90
62072;DHT22;48031;48.542;13.232;2022-08-21T06:30:09;18.70;99.90
62072;DHT22;48031;48.542;13.232;2022-08-21T06:32:37;19.00;99.90
62072;DHT22;48031;48.542;13.232;2022-08-21T06:35:04;18.30;99.90
62072;DHT22;48031;48.542;13.232;2022-08-21T06:37:32;17.50;99.90
62072;DHT22;48031;48.542;13.232;2022-08-21T06:39:59;17.30;99.90
62072;DHT22;48031;48.542;13.232;2022-08-21T06:42:26;17.40;99.90
62072;DHT22;48031;48.542;13.232;2022-08-21T06:44:56;18.60;99.90
62072;DHT22;48031;48.542;13.232;2022-08-21T06:47:24;17.70;99.90
62072;DHT22;48031;48.542;13.232;2022-08-21T06:49:51;17.90;99.90
62072;DHT22;48031;48.542;13.232;2022-08-21T06:52:19;18.70;99.90
62072;DHT22;48031;48.542;13.232;2022-08-21T06:54:46;18.90;99.90
62072;DHT22;48031;48.542;13.232;2022-08-21T06:57:13;19.60;99.90
62072;DHT22;48031;48.542;13.232;2022-08-21T06:59:41;19.40;99.90
62072;DHT22;48031;48.542;13.232;2022-08-21T07:02:08;18.60;99.90
62072;DHT22;48031;48.542;13.232;2022-08-21T07:04:35;19.00;99.90
62072;DHT22;48031;48.542;13.232;2022-08-21T07:07:02;19.80;99.90
62072;DHT22;48031;48.542;13.232;2022-08-21T07:09:29;19.50;99.90
62072;DHT22;48031;48.542;13.232;2022-08-21T07:11:56;18.40;99.90
62072;DHT22;48031;48.542;13.232;2022-08-21T07:14:24;19.40;99.90
62072;DHT22;48031;48.542;13.232;2022-08-21T07:16:51;19.50;99.90
62072;DHT22;48031;48.542;13.232;2022-08-21T07:19:18;19.60;99.90
62072;DHT22;48031;48.542;13.232;2022-08-21T07:24:13;19.00;99.90
62072;DHT22;48031;48.542;13.232;2022-08-21T07:26:40;19.40;99.90
62072;DHT22;48031;48.542;13.232;2022-08-21T07:29:07;18.70;99.90
62072;DHT22;48031;48.542;13.232;2022-08-21T07:31:34;19.40;99.90
62072;DHT22;48031;48.542;13.232;2022-08-21T07:34:01;19.00;99.90
62072;DHT22;48031;48.542;13.232;2022-08-21T07:36:28;19.40;99.90
62072;DHT22;48031;48.542;13.232;2022-08-21T07:38:59;19.40;99.90
62072;DHT22;48031;48.542;13.232;2022-08-21T07:41:27;18.40;99.90
62072;DHT22;48031;48.542;13.232;2022-08-21T07:43:56;18.30;99.90
62072;DHT22;48031;48.542;13.232;2022-08-21T07:48:51;19.50;99.90
62072;DHT22;48031;48.542;13.232;2022-08-21T07:51:20;19.80;99.90
62072;DHT22;48031;48.542;13.232;2022-08-21T07:53:49;19.50;99.90
62072;DHT22;48031;48.542;13.232;2022-08-21T07:56:17;18.80;99.90
62072;DHT22;48031;48.542;13.232;2022-08-21T07:58:44;19.50;99.90
62072;DHT22;48031;48.542;13.232;2022-08-21T08:01:11;18.60;99.90
62072;DHT22;48031;48.542;13.232;2022-08-21T08:03:38;19.30;99.90
62072;DHT22;48031;48.542;13.232;2022-08-21T08:08:35;19.80;99.90
62072;DHT22;48031;48.542;13.232;2022-08-21T08:15:57;21.20;99.90
62072;DHT22;48031;48.542;13.232;2022-08-21T08:20:51;20.80;99.90
62072;DHT22;48031;48.542;13.232;2022-08-21T08:28:14;19.10;99.90
62072;DHT22;48031;48.542;13.232;2022-08-21T08:30:44;21.40;99.90
62072;DHT22;48031;48.542;13.232;2022-08-21T08:33:11;21.30;99.90
62072;DHT22;48031;48.542;13.232;2022-08-21T08:38:07;21.20;99.90
62072;DHT22;48031;48.542;13.232;2022-08-21T08:40:44;19.70;99.90
62072;DHT22;48031;48.542;13.232;2022-08-21T08:43:12;22.10;97.30
62072;DHT22;48031;48.542;13.232;2022-08-21T08:45:42;21.90;99.90
62072;DHT22;48031;48.542;13.232;2022-08-21T08:48:12;22.20;99.90
62072;DHT22;48031;48.542;13.232;2022-08-21T08:50:41;22.10;98.40
62072;DHT22;48031;48.542;13.232;2022-08-21T08:53:17;21.60;98.40
62072;DHT22;48031;48.542;13.232;2022-08-21T08:55:46;20.90;95.70
62072;DHT22;48031;48.542;13.232;2022-08-21T08:58:28;21.60;99.90
62072;DHT22;48031;48.542;13.232;2022-08-21T09:00:58;21.70;96.80
62072;DHT22;48031;48.542;13.232;2022-08-21T09:03:26;22.00;96.70
62072;DHT22;48031;48.542;13.232;2022-08-21T09:06:04;21.60;99.80
62072;DHT22;48031;48.542;13.232;2022-08-21T09:16:29;22.40;85.40
62072;DHT22;48031;48.542;13.232;2022-08-21T09:21:58;23.80;80.10
62072;DHT22;48031;48.542;13.232;2022-08-21T10:21:30;33.30;1.00
62072;DHT22;48031;48.542;13.232;2022-08-21T10:26:32;35.20;1.00
62072;DHT22;48031;48.542;13.232;2022-08-21T10:37:13;35.60;1.00
62072;DHT22;48031;48.542;13.232;2022-08-21T10:39:40;36.00;1.00
62072;DHT22;48031;48.542;13.232;2022-08-21T10:47:13;35.10;1.00
62072;DHT22;48031;48.542;13.232;2022-08-21T10:53:01;36.90;1.00
62072;DHT22;48031;48.542;13.232;2022-08-21T10:55:26;37.10;1.00
62072;DHT22;48031;48.542;13.232;2022-08-21T11:00:22;34.90;1.00
62072;DHT22;48031;48.542;13.232;2022-08-21T11:05:30;37.20;1.00
62072;DHT22;48031;48.542;13.232;2022-08-21T11:08:02;36.70;1.00
62072;DHT22;48031;48.542;13.232;2022-08-21T11:10:39;33.70;1.00
62072;DHT22;48031;48.542;13.232;2022-08-21T11:13:29;34.80;1.00
62072;DHT22;48031;48.542;13.232;2022-08-21T11:18:38;37.00;1.00
62072;DHT22;48031;48.542;13.232;2022-08-21T11:21:20;37.50;1.00
62072;DHT22;48031;48.542;13.232;2022-08-21T11:26:41;36.20;1.00
62072;DHT22;48031;48.542;13.232;2022-08-21T11:36:38;38.10;1.00
62072;DHT22;48031;48.542;13.232;2022-08-21T11:41:45;37.70;1.00
62072;DHT22;48031;48.542;13.232;2022-08-21T11:59:01;38.40;1.00
62072;DHT22;48031;48.542;13.232;2022-08-21T12:01:30;35.60;1.00
62072;DHT22;48031;48.542;13.232;2022-08-21T12:04:02;33.20;1.00
62072;DHT22;48031;48.542;13.232;2022-08-21T12:06:32;31.80;1.00
62072;DHT22;48031;48.542;13.232;2022-08-21T12:09:02;32.60;1.00
62072;DHT22;48031;48.542;13.232;2022-08-21T12:11:30;31.90;1.00
62072;DHT22;48031;48.542;13.232;2022-08-21T12:16:31;34.30;1.00
62072;DHT22;48031;48.542;13.232;2022-08-21T12:19:06;36.00;1.00
62072;DHT22;48031;48.542;13.232;2022-08-21T12:29:12;37.10;1.00
62072;DHT22;48031;48.542;13.232;2022-08-21T12:31:47;36.60;1.00
62072;DHT22;48031;48.542;13.232;2022-08-21T12:34:15;35.80;1.00
62072;DHT22;48031;48.542;13.232;2022-08-21T12:36:44;33.70;1.00
62072;DHT22;48031;48.542;13.232;2022-08-21T12:39:12;35.00;1.00
62072;DHT22;48031;48.542;13.232;2022-08-21T12:41:52;36.30;1.00
62072;DHT22;48031;48.542;13.232;2022-08-21T12:44:40;37.60;1.00
62072;DHT22;48031;48.542;13.232;2022-08-21T12:47:26;38.50;1.00
62072;DHT22;48031;48.542;13.232;2022-08-21T12:49:56;36.50;1.00
62072;DHT22;48031;48.542;13.232;2022-08-21T12:52:30;38.20;1.00
62072;DHT22;48031;48.542;13.232;2022-08-21T12:55:04;38.70;1.00
62072;DHT22;48031;48.542;13.232;2022-08-21T12:57:31;39.00;1.00
62072;DHT22;48031;48.542;13.232;2022-08-21T12:59:59;37.80;1.00
62072;DHT22;48031;48.542;13.232;2022-08-21T13:02:35;37.50;1.00
62072;DHT22;48031;48.542;13.232;2022-08-21T13:05:05;36.10;1.00
62072;DHT22;48031;48.542;13.232;2022-08-21T13:07:34;34.80;1.00
62072;DHT22;48031;48.542;13.232;2022-08-21T13:12:48;33.60;1.00
62072;DHT22;48031;48.542;13.232;2022-08-21T13:15:21;36.50;1.00
62072;DHT22;48031;48.542;13.232;2022-08-21T13:17:50;36.30;1.00
62072;DHT22;48031;48.542;13.232;2022-08-21T13:22:47;32.40;1.00
62072;DHT22;48031;48.542;13.232;2022-08-21T13:25:15;32.00;1.00
62072;DHT22;48031;48.542;13.232;2022-08-21T13:27:44;31.20;1.00
62072;DHT22;48031;48.542;13.232;2022-08-21T13:30:18;31.20;1.00
62072;DHT22;48031;48.542;13.232;2022-08-21T13:32:47;30.30;1.00
62072;DHT22;48031;48.542;13.232;2022-08-21T13:35:19;30.00;1.00
62072;DHT22;48031;48.542;13.232;2022-08-21T13:40:15;31.40;1.00
62072;DHT22;48031;48.542;13.232;2022-08-21T13:42:43;33.50;1.00
62072;DHT22;48031;48.542;13.232;2022-08-21T13:45:13;33.70;1.00
62072;DHT22;48031;48.542;13.232;2022-08-21T13:47:40;36.30;1.00
62072;DHT22;48031;48.542;13.232;2022-08-21T13:50:08;38.40;1.00
62072;DHT22;48031;48.542;13.232;2022-08-21T13:52:44;38.50;1.00
62072;DHT22;48031;48.542;13.232;2022-08-21T13:55:15;39.70;1.00
62072;DHT22;48031;48.542;13.232;2022-08-21T13:57:43;40.90;1.00
62072;DHT22;48031;48.542;13.232;2022-08-21T14:10:05;43.40;1.00
62072;DHT22;48031;48.542;13.232;2022-08-21T14:12:36;41.10;1.00
62072;DHT22;48031;48.542;13.232;2022-08-21T16:50:19;37.90;1.00
62072;DHT22;48031;48.542;13.232;2022-08-21T16:52:48;37.00;1.00
62072;DHT22;48031;48.542;13.232;2022-08-21T16:55:15;36.90;1.00
62072;DHT22;48031;48.542;13.232;2022-08-21T16:57:42;36.90;1.00
62072;DHT22;48031;48.542;13.232;2022-08-21T17:00:10;37.20;1.00
62072;DHT22;48031;48.542;13.232;2022-08-21T17:02:39;35.70;1.00
62072;DHT22;48031;48.542;13.232;2022-08-21T17:05:08;35.20;1.00
62072;DHT22;48031;48.542;13.232;2022-08-21T17:07:40;35.30;1.00
62072;DHT22;48031;48.542;13.232;2022-08-21T17:10:08;34.80;1.00
62072;DHT22;48031;48.542;13.232;2022-08-21T17:12:35;34.40;1.00
62072;DHT22;48031;48.542;13.232;2022-08-21T17:15:04;34.70;1.00
62072;DHT22;48031;48.542;13.232;2022-08-21T17:17:32;33.70;1.00
62072;DHT22;48031;48.542;13.232;2022-08-21T17:19:59;32.20;1.00
62072;DHT22;48031;48.542;13.232;2022-08-21T17:22:26;31.40;1.00
62072;DHT22;48031;48.542;13.232;2022-08-21T17:24:53;29.80;1.00
62072;DHT22;48031;48.542;13.232;2022-08-21T17:27:21;29.40;1.00
62072;DHT22;48031;48.542;13.232;2022-08-21T17:29:52;28.70;1.00
62072;DHT22;48031;48.542;13.232;2022-08-21T17:34:48;26.70;1.00
62072;DHT22;48031;48.542;13.232;2022-08-21T17:37:15;27.20;1.00
62072;DHT22;48031;48.542;13.232;2022-08-21T17:39:42;27.30;1.00
62072;DHT22;48031;48.542;13.232;2022-08-21T18:11:38;24.10;1.00
62072;DHT22;48031;48.542;13.232;2022-08-21T18:14:06;24.70;1.00
62072;DHT22;48031;48.542;13.232;2022-08-21T18:16:34;23.70;1.00
62072;DHT22;48031;48.542;13.232;2022-08-21T18:19:02;24.70;1.00
62072;DHT22;48031;48.542;13.232;2022-08-21T18:21:30;24.40;1.00
62072;DHT22;48031;48.542;13.232;2022-08-21T18:23:58;24.50;1.00
62072;DHT22;48031;48.542;13.232;2022-08-21T18:26:29;23.80;1.00
62072;DHT22;48031;48.542;13.232;2022-08-21T18:28:57;24.10;1.00
62072;DHT22;48031;48.542;13.232;2022-08-21T18:31:27;23.40;1.00
62072;DHT22;48031;48.542;13.232;2022-08-21T18:33:55;24.50;1.00
62072;DHT22;48031;48.542;13.232;2022-08-21T18:36:27;24.00;1.00
62072;DHT22;48031;48.542;13.232;2022-08-21T18:38:55;23.90;1.00
62072;DHT22;48031;48.542;13.232;2022-08-21T18:46:34;23.80;1.00
62072;DHT22;48031;48.542;13.232;2022-08-21T18:49:01;24.20;1.00
62072;DHT22;48031;48.542;13.232;2022-08-21T18:51:29;23.60;1.00
62072;DHT22;48031;48.542;13.232;2022-08-21T18:53:56;23.90;1.00
62072;DHT22;48031;48.542;13.232;2022-08-21T18:56:23;23.30;1.00
62072;DHT22;48031;48.542;13.232;2022-08-21T18:58:51;23.20;1.00
62072;DHT22;48031;48.542;13.232;2022-08-21T19:01:24;23.40;1.00
